Time;durP1;ratioP1;P1;durP2;ratioP2;P2;SDS_P1;SDS_P2;PMS_P1;PMS_P2;Temp;Humidity;BMP_temperature;BMP_pressure;BME280_temperature;BME280_humidity;BME280_pressure;Samples;Min_cycle;Max_cycle;Signal;HPM_P1;HPM_P2
2022/04/26 03:36:37;;;;;;;24.00;16.43;;;;;;;;;;5051025;28;20236;-84
2022/04/26 03:39:05;;;;;;;20.37;15.73;;;;;;;;;;5051424;28;20243;-84
2022/04/26 03:41:32;;;;;;;23.97;17.10;;;;;;;;;;5052238;28;20217;-84
2022/04/26 03:43:59;;;;;;;23.40;18.10;;;;;;;;;;5051534;28;20234;-84
2022/04/26 03:46:26;;;;;;;26.90;18.67;;;;;;;;;;5050953;28;20674;-84
2022/04/26 03:48:54;;;;;;;24.70;18.90;;;;;;;;;;5052198;28;20595;-84
2022/04/26 03:51:21;;;;;;;27.70;18.63;;;;;;;;;;5052455;28;20206;-83
2022/04/26 03:53:49;;;;;;;28.20;19.40;;;;;;;;;;5053484;28;20593;-83
2022/04/26 03:56:16;;;;;;;26.03;18.23;;;;;;;;;;5052851;28;20724;-84
2022/04/26 03:58:43;;;;;;;29.03;20.03;;;;;;;;;;5057064;28;20221;-83
2022/04/26 04:01:10;;;;;;;26.83;19.47;;;;;;;;;;5057492;28;20233;-84
2022/04/26 04:03:38;;;;;;;26.37;18.57;;;;;;;;;;5056719;28;20229;-84
2022/04/26 04:06:07;;;;;;;23.17;17.87;;;;;;;;;;5058388;28;20724;-82
2022/04/26 04:08:34;;;;;;;26.57;18.63;;;;;;;;;;5059945;28;20206;-85
2022/04/26 04:11:01;;;;;;;27.00;18.90;;;;;;;;;;5065587;28;20241;-82
2022/04/26 04:13:28;;;;;;;23.07;18.60;;;;;;;;;;5059611;28;20254;-83
2022/04/26 04:15:56;;;;;;;26.37;18.87;;;;;;;;;;5062296;28;20615;-83
2022/04/26 04:21:10;;;;;;;27.20;19.73;;;;;;;;;;5059356;28;20287;-83
2022/04/26 04:23:38;;;;;;;27.57;20.10;;;;;;;;;;5061108;28;20232;-84
2022/04/26 04:26:05;;;;;;;29.20;20.63;;;;;;;;;;5060469;28;20321;-84
2022/04/26 04:28:33;;;;;;;28.37;20.73;;;;;;;;;;5060542;28;20918;-85
2022/04/26 04:31:00;;;;;;;27.97;20.17;;;;;;;;;;5058644;28;20242;-82
2022/04/26 04:33:27;;;;;;;28.93;20.37;;;;;;;;;;5056440;28;20276;-83
2022/04/26 04:35:54;;;;;;;28.27;19.13;;;;;;;;;;5055954;28;20238;-83
2022/04/26 04:38:22;;;;;;;27.00;19.97;;;;;;;;;;5056534;28;20226;-83
2022/04/26 04:40:49;;;;;;;26.43;20.10;;;;;;;;;;5055834;28;20241;-83
2022/04/26 04:43:16;;;;;;;24.00;18.77;;;;;;;;;;5055685;28;20233;-83
2022/04/26 04:45:44;;;;;;;26.67;19.27;;;;;;;;;;5055815;28;20237;-84
2022/04/26 04:48:11;;;;;;;27.13;19.07;;;;;;;;;;5065764;28;20201;-83
2022/04/26 04:50:38;;;;;;;28.20;20.83;;;;;;;;;;5068471;28;20234;-84
2022/04/26 04:53:05;;;;;;;28.30;21.23;;;;;;;;;;5069113;28;20297;-83
2022/04/26 04:55:33;;;;;;;30.87;20.93;;;;;;;;;;5060873;28;20249;-84
2022/04/26 04:58:01;;;;;;;32.50;21.63;;;;;;;;;;5057629;28;20281;-83
2022/04/26 05:00:28;;;;;;;32.50;20.37;;;;;;;;;;5055125;28;20748;-84
2022/04/26 05:02:55;;;;;;;29.33;21.20;;;;;;;;;;5055993;28;20230;-83
2022/04/26 05:05:22;;;;;;;32.23;23.13;;;;;;;;;;5054528;28;20229;-84
2022/04/26 05:07:50;;;;;;;31.83;19.87;;;;;;;;;;5055572;28;20206;-84
2022/04/26 05:10:17;;;;;;;37.53;21.93;;;;;;;;;;5054671;28;20240;-83
2022/04/26 05:12:45;;;;;;;33.53;22.80;;;;;;;;;;5054826;28;20228;-84
2022/04/26 05:15:12;;;;;;;35.57;22.47;;;;;;;;;;5054923;28;20316;-84
2022/04/26 05:17:39;;;;;;;35.50;22.20;;;;;;;;;;5054916;28;20238;-84
2022/04/26 05:20:08;;;;;;;34.87;21.50;;;;;;;;;;5053441;28;20234;-84
2022/04/26 05:24:53;;;;;;;36.73;23.17;;;;;;;;;;5054619;28;20226;-84
2022/04/26 05:25:21;;;;;;;34.83;22.87;;;;;;;;;;5053364;28;20238;-83
2022/04/26 05:27:49;;;;;;;35.60;23.53;;;;;;;;;;5054042;28;20689;-84
2022/04/26 05:30:16;;;;;;;36.40;23.17;;;;;;;;;;5052875;28;20236;-84
2022/04/26 05:32:44;;;;;;;34.70;24.23;;;;;;;;;;5054173;28;20241;-82
2022/04/26 05:35:11;;;;;;;36.83;22.53;;;;;;;;;;5053021;28;20252;-84
2022/04/26 05:37:39;;;;;;;33.13;22.03;;;;;;;;;;5053798;28;20321;-84
2022/04/26 05:40:06;;;;;;;32.00;22.20;;;;;;;;;;5057727;28;20238;-83
2022/04/26 05:42:36;;;;;;;36.13;23.07;;;;;;;;;;5054542;28;20346;-84
2022/04/26 05:45:05;;;;;;;34.97;23.83;;;;;;;;;;5053558;28;20241;-84
2022/04/26 05:47:32;;;;;;;33.70;21.87;;;;;;;;;;5053983;28;20209;-84
2022/04/26 05:49:59;;;;;;;34.30;22.37;;;;;;;;;;5054238;28;20248;-84
2022/04/26 05:52:27;;;;;;;36.90;21.30;;;;;;;;;;5054179;28;20663;-84
2022/04/26 05:54:54;;;;;;;31.73;21.03;;;;;;;;;;5053648;28;20602;-84
2022/04/26 05:57:21;;;;;;;33.60;21.57;;;;;;;;;;5053829;28;20233;-84
2022/04/26 05:59:48;;;;;;;31.97;20.60;;;;;;;;;;5053373;28;20230;-84
2022/04/26 06:02:16;;;;;;;34.03;20.80;;;;;;;;;;5054195;28;20609;-84
2022/04/26 06:04:44;;;;;;;29.17;20.20;;;;;;;;;;5053461;28;20237;-84
2022/04/26 06:07:12;;;;;;;31.40;19.87;;;;;;;;;;5053781;28;20619;-84
2022/04/26 06:09:40;;;;;;;31.90;20.33;;;;;;;;;;5053595;28;20234;-83
2022/04/26 06:12:07;;;;;;;29.13;20.80;;;;;;;;;;5054264;28;20356;-84
2022/04/26 06:14:34;;;;;;;32.03;21.03;;;;;;;;;;5053694;28;20241;-84
2022/04/26 06:17:01;;;;;;;30.10;19.90;;;;;;;;;;5053602;28;20206;-84
2022/04/26 06:19:30;;;;;;;32.57;22.67;;;;;;;;;;5052676;28;20257;-84
2022/04/26 06:21:57;;;;;;;33.77;21.17;;;;;;;;;;5053729;28;20229;-83
2022/04/26 06:24:25;;;;;;;34.60;23.63;;;;;;;;;;5053289;28;20584;-84
2022/04/26 06:26:52;;;;;;;37.03;24.27;;;;;;;;;;5054941;28;20260;-84
2022/04/26 06:29:19;;;;;;;39.20;23.23;;;;;;;;;;5054115;28;20230;-83
2022/04/26 06:31:47;;;;;;;37.37;22.20;;;;;;;;;;5054678;28;20212;-84
2022/04/26 06:34:14;;;;;;;35.47;22.63;;;;;;;;;;5054416;28;20268;-84
2022/04/26 06:36:43;;;;;;;31.87;21.60;;;;;;;;;;5054325;28;20678;-82
2022/04/26 06:39:10;;;;;;;32.07;21.00;;;;;;;;;;5055896;28;20230;-84
2022/04/26 06:41:37;;;;;;;31.37;21.57;;;;;;;;;;5054753;28;20210;-84
2022/04/26 06:44:04;;;;;;;32.13;21.03;;;;;;;;;;5056151;28;20280;-84
2022/04/26 06:46:31;;;;;;;30.43;20.53;;;;;;;;;;5054216;28;20206;-83
2022/04/26 06:49:00;;;;;;;34.17;20.90;;;;;;;;;;5053462;28;20206;-84
2022/04/26 06:51:27;;;;;;;31.07;20.37;;;;;;;;;;5053729;28;20233;-84
2022/04/26 06:53:55;;;;;;;30.77;20.60;;;;;;;;;;5053486;28;20237;-84
2022/04/26 06:56:22;;;;;;;28.67;19.53;;;;;;;;;;5053828;28;20209;-84
2022/04/26 06:58:49;;;;;;;24.57;17.23;;;;;;;;;;5053557;28;20225;-84
2022/04/26 07:01:16;;;;;;;24.87;17.03;;;;;;;;;;5052981;28;20230;-83
2022/04/26 07:03:43;;;;;;;27.00;17.67;;;;;;;;;;5053406;28;20225;-84
2022/04/26 07:06:10;;;;;;;22.93;16.90;;;;;;;;;;5053328;28;20230;-83
2022/04/26 07:08:38;;;;;;;22.20;15.53;;;;;;;;;;5053752;28;20292;-86
2022/04/26 07:11:06;;;;;;;20.17;15.37;;;;;;;;;;5053055;28;20238;-84
2022/04/26 07:13:33;;;;;;;22.83;16.07;;;;;;;;;;5054225;28;20229;-85
2022/04/26 07:16:00;;;;;;;19.27;14.57;;;;;;;;;;5053736;28;20233;-84
2022/04/26 07:18:27;;;;;;;17.23;13.27;;;;;;;;;;5053923;28;20237;-84
2022/04/26 07:20:54;;;;;;;15.80;11.63;;;;;;;;;;5053737;28;20237;-84
2022/04/26 07:23:21;;;;;;;12.27;9.87;;;;;;;;;;5054833;28;20229;-83
2022/04/26 07:25:48;;;;;;;12.00;9.93;;;;;;;;;;5053521;28;20240;-84
2022/04/26 07:28:19;;;;;;;11.70;9.00;;;;;;;;;;5054268;28;20597;-84
2022/04/26 07:30:46;;;;;;;10.30;8.50;;;;;;;;;;5054032;28;20317;-84
2022/04/26 07:35:58;;;;;;;9.67;8.30;;;;;;;;;;5064367;28;20236;-83
2022/04/26 07:38:25;;;;;;;10.83;8.67;;;;;;;;;;5057691;28;20229;-84
2022/04/26 07:40:52;;;;;;;11.60;8.23;;;;;;;;;;5057431;28;20238;-84
2022/04/26 07:43:21;;;;;;;11.27;8.10;;;;;;;;;;5057557;28;20233;-84
2022/04/26 07:45:48;;;;;;;9.20;7.63;;;;;;;;;;5057865;28;20805;-84
2022/04/26 07:48:16;;;;;;;9.90;7.97;;;;;;;;;;5057547;28;20198;-85
2022/04/26 07:50:44;;;;;;;9.90;8.67;;;;;;;;;;5057084;28;20295;-83
2022/04/26 07:53:12;;;;;;;10.67;8.27;;;;;;;;;;5057414;28;20668;-83
2022/04/26 07:55:39;;;;;;;9.63;8.63;;;;;;;;;;5057272;28;20736;-84
2022/04/26 07:58:06;;;;;;;11.97;8.80;;;;;;;;;;5057581;28;20230;-84
2022/04/26 08:00:36;;;;;;;10.27;7.97;;;;;;;;;;5056660;28;20233;-84
2022/04/26 08:03:05;;;;;;;10.30;8.53;;;;;;;;;;5057746;28;20648;-84
2022/04/26 08:05:32;;;;;;;13.10;9.70;;;;;;;;;;5057439;28;20234;-84
2022/04/26 08:07:59;;;;;;;12.50;8.83;;;;;;;;;;5057985;28;20210;-84
2022/04/26 08:10:26;;;;;;;12.53;9.50;;;;;;;;;;5057027;28;20640;-84
2022/04/26 08:12:53;;;;;;;11.40;8.97;;;;;;;;;;5058588;28;20230;-84
2022/04/26 08:15:20;;;;;;;10.87;9.43;;;;;;;;;;5057423;28;20244;-84
2022/04/26 08:17:49;;;;;;;11.53;9.87;;;;;;;;;;5057977;28;20236;-85
2022/04/26 08:20:17;;;;;;;11.93;9.60;;;;;;;;;;5057573;28;20353;-84
2022/04/26 08:22:44;;;;;;;13.97;9.73;;;;;;;;;;5057872;28;20295;-84
2022/04/26 08:27:56;;;;;;;17.33;12.30;;;;;;;;;;5058344;28;20194;-85
2022/04/26 08:30:23;;;;;;;14.07;10.37;;;;;;;;;;5058191;28;20234;-84
2022/04/26 08:32:51;;;;;;;11.90;9.47;;;;;;;;;;5057841;28;20265;-84
2022/04/26 08:35:20;;;;;;;16.27;11.03;;;;;;;;;;5057101;28;20238;-82
2022/04/26 08:37:47;;;;;;;15.20;12.57;;;;;;;;;;5058302;28;20217;-85
2022/04/26 08:40:14;;;;;;;29.03;18.63;;;;;;;;;;5058961;28;20235;-85
2022/04/26 08:42:43;;;;;;;14.00;11.87;;;;;;;;;;5056905;28;20229;-85
2022/04/26 08:45:10;;;;;;;16.07;10.13;;;;;;;;;;5057154;28;20240;-85
2022/04/26 08:53:24;;;;;;;10.90;9.47;;;;;;;;;;4995289;28;20727;-84
2022/04/26 08:55:52;;;;;;;11.43;9.13;;;;;;;;;;4994255;28;20795;-84
2022/04/26 08:58:19;;;;;;;12.43;10.33;;;;;;;;;;5022004;28;20230;-85
2022/04/26 09:01:01;;;;;;;12.17;10.07;;;;;;;;;;5056401;28;20230;-84
2022/04/26 09:03:30;;;;;;;11.23;8.90;;;;;;;;;;5056277;28;20242;-84
2022/04/26 09:06:05;;;;;;;11.83;9.43;;;;;;;;;;5065169;28;20226;-82
2022/04/26 09:08:33;;;;;;;11.43;9.03;;;;;;;;;;5078913;28;20173;-82
2022/04/26 09:11:00;;;;;;;10.53;9.33;;;;;;;;;;5076143;28;20706;-84
2022/04/26 09:13:27;;;;;;;12.13;8.93;;;;;;;;;;5067863;28;20237;-85
2022/04/26 09:15:55;;;;;;;9.80;8.80;;;;;;;;;;5073585;28;20233;-83
2022/04/26 09:18:26;;;;;;;8.30;7.40;;;;;;;;;;5074135;28;20217;-84
2022/04/26 09:20:54;;;;;;;8.87;7.97;;;;;;;;;;5072956;28;20237;-84
2022/04/26 09:23:23;;;;;;;9.30;7.83;;;;;;;;;;5074624;28;20232;-84
2022/04/26 09:25:52;;;;;;;9.40;8.37;;;;;;;;;;5075038;28;20241;-84
2022/04/26 09:28:21;;;;;;;9.90;8.27;;;;;;;;;;5074324;28;20198;-84
2022/04/26 09:30:49;;;;;;;10.10;8.80;;;;;;;;;;5060354;28;20229;-84
2022/04/26 09:33:30;;;;;;;9.07;8.10;;;;;;;;;;5057398;28;20261;-85
2022/04/26 09:36:00;;;;;;;9.37;7.57;;;;;;;;;;5057479;28;20233;-84
2022/04/26 09:38:31;;;;;;;7.67;6.87;;;;;;;;;;5056320;28;20230;-85
2022/04/26 09:41:00;;;;;;;7.97;7.17;;;;;;;;;;5055722;28;20234;-85
2022/04/26 09:43:28;;;;;;;7.60;6.90;;;;;;;;;;5056335;28;20291;-85
2022/04/26 09:45:56;;;;;;;7.90;7.10;;;;;;;;;;5055674;28;20238;-85
2022/04/26 09:48:26;;;;;;;8.57;7.47;;;;;;;;;;5058563;28;20206;-84
2022/04/26 09:50:54;;;;;;;8.57;7.10;;;;;;;;;;5065399;28;20237;-85
2022/04/26 09:53:21;;;;;;;6.27;5.67;;;;;;;;;;5064267;28;20241;-84
2022/04/26 09:55:49;;;;;;;6.77;6.10;;;;;;;;;;5063812;28;20245;-85
2022/04/26 09:58:19;;;;;;;8.53;6.37;;;;;;;;;;5063618;28;20226;-85
2022/04/26 10:00:47;;;;;;;6.40;5.63;;;;;;;;;;5066443;28;20260;-84
2022/04/26 10:03:16;;;;;;;6.47;5.40;;;;;;;;;;5063536;28;20592;-84
2022/04/26 10:05:45;;;;;;;6.23;5.57;;;;;;;;;;5055739;28;20234;-83
2022/04/26 10:08:13;;;;;;;5.70;5.10;;;;;;;;;;5055430;28;20205;-84
2022/04/26 10:10:41;;;;;;;6.30;5.30;;;;;;;;;;5055035;28;20234;-85
2022/04/26 10:15:54;;;;;;;6.00;5.40;;;;;;;;;;5055563;28;20240;-85
2022/04/26 10:18:29;;;;;;;7.53;5.60;;;;;;;;;;5054867;28;20230;-85
2022/04/26 10:20:56;;;;;;;6.53;5.87;;;;;;;;;;5053616;28;20237;-85
2022/04/26 10:23:23;;;;;;;5.07;4.67;;;;;;;;;;5054490;28;20222;-85
2022/04/26 10:26:22;;;;;;;5.27;4.77;;;;;;;;;;5053611;28;20234;-84
2022/04/26 10:28:51;;;;;;;6.20;4.83;;;;;;;;;;5020965;28;20206;-85
2022/04/26 10:31:18;;;;;;;5.43;4.97;;;;;;;;;;5054707;28;20230;-85
2022/04/26 10:33:46;;;;;;;6.50;5.17;;;;;;;;;;5054717;28;20291;-85
2022/04/26 10:36:33;;;;;;;5.40;4.90;;;;;;;;;;5054145;28;20237;-83
2022/04/26 10:39:22;;;;;;;5.67;4.87;;;;;;;;;;5053961;28;20290;-83
2022/04/26 10:41:49;;;;;;;5.30;4.80;;;;;;;;;;5054729;28;20191;-83
2022/04/26 10:44:26;;;;;;;4.70;4.30;;;;;;;;;;5036092;28;20230;-83
2022/04/26 10:47:09;;;;;;;4.80;4.40;;;;;;;;;;5054241;28;20205;-83
2022/04/26 10:49:45;;;;;;;5.60;5.10;;;;;;;;;;5052542;28;20226;-83
2022/04/26 10:52:34;;;;;;;5.13;4.43;;;;;;;;;;5053458;28;20682;-84
2022/04/26 10:55:03;;;;;;;5.20;4.70;;;;;;;;;;5053285;28;20229;-83
2022/04/26 10:57:30;;;;;;;4.90;4.50;;;;;;;;;;5053250;28;20202;-83
2022/04/26 11:00:00;;;;;;;6.30;4.67;;;;;;;;;;5053441;28;20237;-83
2022/04/26 11:02:28;;;;;;;4.90;4.47;;;;;;;;;;5053282;28;20646;-83
2022/04/26 11:04:59;;;;;;;4.73;4.30;;;;;;;;;;5052855;28;20229;-83
2022/04/26 11:07:27;;;;;;;5.20;4.70;;;;;;;;;;5052846;28;20214;-83
2022/04/26 11:09:55;;;;;;;5.20;4.40;;;;;;;;;;5052273;28;20280;-83
2022/04/26 11:12:23;;;;;;;5.33;4.67;;;;;;;;;;5053202;28;20205;-83
2022/04/26 11:14:52;;;;;;;4.97;4.47;;;;;;;;;;5052960;28;20226;-83
2022/04/26 11:17:22;;;;;;;4.07;3.77;;;;;;;;;;5053369;28;20209;-83
2022/04/26 11:19:49;;;;;;;4.30;3.90;;;;;;;;;;5052379;28;20253;-83
2022/04/26 11:22:17;;;;;;;3.80;3.00;;;;;;;;;;5052893;28;20213;-83
2022/04/26 11:30:23;;;;;;;2.40;2.30;;;;;;;;;;5052299;28;20236;-82
2022/04/26 11:32:51;;;;;;;2.30;2.20;;;;;;;;;;5053759;28;20650;-82
2022/04/26 11:35:20;;;;;;;1.90;1.80;;;;;;;;;;5052896;28;20230;-83
2022/04/26 11:37:48;;;;;;;2.33;2.13;;;;;;;;;;5052854;28;20202;-83
2022/04/26 11:40:22;;;;;;;2.33;2.23;;;;;;;;;;5054488;28;20741;-82
2022/04/26 11:42:50;;;;;;;2.03;1.93;;;;;;;;;;5053682;28;20228;-83
2022/04/26 11:45:17;;;;;;;2.10;2.00;;;;;;;;;;5052187;28;20287;-83
2022/04/26 11:47:44;;;;;;;2.47;2.27;;;;;;;;;;5052417;28;20205;-83
2022/04/26 11:50:17;;;;;;;3.30;2.10;;;;;;;;;;5052814;28;20316;-82
2022/04/26 11:52:45;;;;;;;1.67;1.57;;;;;;;;;;5052714;28;20637;-82
2022/04/26 11:55:28;;;;;;;3.60;2.00;;;;;;;;;;5051964;28;20257;-82
2022/04/26 11:58:06;;;;;;;2.33;2.00;;;;;;;;;;5052515;28;20297;-82
2022/04/26 12:00:33;;;;;;;2.50;2.30;;;;;;;;;;5052340;28;20261;-82
2022/04/26 12:03:01;;;;;;;2.73;2.53;;;;;;;;;;5052648;28;20264;-82
2022/04/26 12:05:29;;;;;;;3.47;2.90;;;;;;;;;;5052660;28;20716;-82
2022/04/26 12:07:57;;;;;;;3.37;3.07;;;;;;;;;;5052824;28;20206;-83
2022/04/26 12:10:28;;;;;;;2.90;2.63;;;;;;;;;;5051838;28;20241;-82
2022/04/26 12:12:56;;;;;;;3.60;2.90;;;;;;;;;;5056475;28;20214;-82
2022/04/26 12:15:25;;;;;;;3.50;2.87;;;;;;;;;;5052640;28;20621;-81
2022/04/26 12:18:03;;;;;;;2.70;2.53;;;;;;;;;;5053770;28;20217;-82
2022/04/26 12:20:32;;;;;;;3.80;2.60;;;;;;;;;;5056138;28;20273;-82
2022/04/26 12:22:59;;;;;;;2.80;2.50;;;;;;;;;;5057711;28;20228;-82
2022/04/26 12:25:26;;;;;;;2.63;2.30;;;;;;;;;;5056734;28;20234;-82
2022/04/26 12:28:02;;;;;;;2.33;2.20;;;;;;;;;;5057305;28;20210;-82
2022/04/26 12:30:30;;;;;;;2.27;2.03;;;;;;;;;;5055813;28;20647;-82
2022/04/26 12:32:57;;;;;;;1.80;1.70;;;;;;;;;;5056305;28;20741;-82
2022/04/26 12:35:24;;;;;;;1.97;1.87;;;;;;;;;;5055692;28;20635;-82
2022/04/26 12:38:05;;;;;;;2.20;2.10;;;;;;;;;;5056215;28;20229;-82
2022/04/26 12:40:32;;;;;;;5.70;2.40;;;;;;;;;;5055473;28;20632;-82
2022/04/26 12:42:59;;;;;;;2.00;1.90;;;;;;;;;;5055767;28;20237;-82
2022/04/26 12:45:27;;;;;;;1.97;1.87;;;;;;;;;;5055478;28;20233;-83
2022/04/26 12:50:52;;;;;;;2.10;2.00;;;;;;;;;;5055511;28;20462;-82
2022/04/26 12:53:24;;;;;;;4.10;2.00;;;;;;;;;;5055355;28;20261;-82
2022/04/26 12:55:51;;;;;;;2.10;1.90;;;;;;;;;;5054705;28;20233;-82
2022/04/26 12:58:19;;;;;;;3.00;2.20;;;;;;;;;;5055083;28;20233;-81
2022/04/26 13:00:47;;;;;;;1.90;1.80;;;;;;;;;;5054583;28;20260;-82
2022/04/26 13:03:17;;;;;;;2.70;2.50;;;;;;;;;;5054941;28;20256;-82
2022/04/26 13:05:45;;;;;;;2.50;2.00;;;;;;;;;;5054448;28;20230;-82
2022/04/26 13:08:13;;;;;;;2.20;2.10;;;;;;;;;;5054907;28;20633;-80
2022/04/26 13:10:42;;;;;;;2.40;2.27;;;;;;;;;;5054733;28;20325;-81
2022/04/26 13:13:10;;;;;;;2.60;2.20;;;;;;;;;;5055409;28;20234;-81
2022/04/26 13:15:37;;;;;;;2.43;2.23;;;;;;;;;;5054376;28;20245;-82
2022/04/26 13:18:05;;;;;;;3.53;2.23;;;;;;;;;;5055434;28;20214;-82
2022/04/26 13:20:33;;;;;;;2.00;1.90;;;;;;;;;;5053925;28;20241;-81
2022/04/26 13:23:00;;;;;;;2.30;2.10;;;;;;;;;;5055487;28;20261;-82
2022/04/26 13:25:27;;;;;;;2.27;2.07;;;;;;;;;;5056476;28;20629;-82
2022/04/26 13:27:55;;;;;;;2.10;2.00;;;;;;;;;;5055182;28;20678;-82
2022/04/26 13:30:24;;;;;;;2.93;2.20;;;;;;;;;;5052824;28;20240;-82
2022/04/26 13:32:52;;;;;;;2.30;2.10;;;;;;;;;;5054850;28;20333;-84
2022/04/26 13:35:19;;;;;;;2.30;2.10;;;;;;;;;;5054238;28;20243;-81
2022/04/26 13:37:46;;;;;;;2.57;2.37;;;;;;;;;;5054912;28;20202;-82
2022/04/26 13:40:13;;;;;;;2.20;2.10;;;;;;;;;;5053586;28;20238;-81
2022/04/26 13:42:41;;;;;;;2.07;1.97;;;;;;;;;;5055168;28;20262;-82
2022/04/26 13:45:09;;;;;;;2.63;2.03;;;;;;;;;;5054595;28;20242;-82
2022/04/26 13:47:38;;;;;;;3.47;2.30;;;;;;;;;;5069237;28;20206;-81
2022/04/26 13:50:06;;;;;;;2.00;1.90;;;;;;;;;;5070922;28;20234;-82
2022/04/26 13:52:33;;;;;;;2.20;2.00;;;;;;;;;;5071380;28;20229;-81
2022/04/26 13:55:00;;;;;;;2.00;1.90;;;;;;;;;;5060474;28;20233;-82
2022/04/26 13:57:27;;;;;;;2.00;1.90;;;;;;;;;;5055488;28;20209;-81
2022/04/26 13:59:54;;;;;;;2.20;2.10;;;;;;;;;;5054674;28;20233;-82
2022/04/26 14:02:22;;;;;;;2.03;1.93;;;;;;;;;;5054538;28;20210;-82
2022/04/26 14:04:49;;;;;;;2.83;2.00;;;;;;;;;;5053985;28;20230;-82
2022/04/26 14:07:17;;;;;;;2.17;1.70;;;;;;;;;;5054543;28;20214;-81
2022/04/26 14:09:44;;;;;;;1.90;1.80;;;;;;;;;;5053704;28;20603;-81
2022/04/26 14:12:14;;;;;;;1.87;1.77;;;;;;;;;;5054230;28;20206;-82
2022/04/26 14:22:57;;;;;;;1.80;1.70;;;;;;;;;;5054190;28;20253;-81
2022/04/26 14:25:24;;;;;;;1.97;1.87;;;;;;;;;;5053803;28;20643;-82
2022/04/26 14:27:51;;;;;;;1.90;1.80;;;;;;;;;;5054568;28;20204;-82
2022/04/26 14:30:19;;;;;;;2.17;2.07;;;;;;;;;;5052847;28;20844;-82
2022/04/26 14:32:48;;;;;;;1.93;1.73;;;;;;;;;;5054303;28;20238;-81
2022/04/26 14:35:16;;;;;;;2.00;1.80;;;;;;;;;;5053864;28;20234;-82
2022/04/26 14:37:43;;;;;;;1.60;1.60;;;;;;;;;;5054035;28;20205;-82
2022/04/26 14:40:10;;;;;;;2.97;2.10;;;;;;;;;;5052949;28;20299;-82
2022/04/26 14:42:40;;;;;;;1.60;1.60;;;;;;;;;;5053096;28;20289;-82
2022/04/26 14:45:07;;;;;;;1.87;1.77;;;;;;;;;;5055050;28;20237;-83
2022/04/26 14:47:34;;;;;;;2.17;2.07;;;;;;;;;;5054100;28;20205;-82
2022/04/26 14:50:04;;;;;;;3.90;2.00;;;;;;;;;;5053209;28;20229;-82
2022/04/26 14:52:32;;;;;;;1.93;1.70;;;;;;;;;;5054388;28;20194;-82
2022/04/26 14:55:01;;;;;;;2.10;1.90;;;;;;;;;;5054388;28;20288;-82
2022/04/26 14:57:29;;;;;;;1.90;1.80;;;;;;;;;;5054080;28;20191;-83
2022/04/26 14:59:56;;;;;;;1.70;1.60;;;;;;;;;;5052353;28;20741;-82
2022/04/26 15:02:23;;;;;;;2.00;1.90;;;;;;;;;;5053702;28;20206;-82
2022/04/26 15:04:51;;;;;;;2.70;2.50;;;;;;;;;;5056392;28;20229;-82
2022/04/26 15:07:19;;;;;;;4.20;3.33;;;;;;;;;;5055072;28;20214;-83
2022/04/26 15:09:52;;;;;;;3.23;2.23;;;;;;;;;;5056411;28;20225;-82
2022/04/26 15:17:49;;;;;;;3.13;1.90;;;;;;;;;;5052659;28;20208;-82
2022/04/26 15:20:17;;;;;;;1.90;1.80;;;;;;;;;;5048921;28;20257;-82
2022/04/26 15:22:46;;;;;;;1.90;1.80;;;;;;;;;;5053546;28;20233;-82
2022/04/26 15:25:13;;;;;;;1.57;1.57;;;;;;;;;;5053091;28;20322;-83
2022/04/26 15:27:41;;;;;;;2.00;1.90;;;;;;;;;;5053483;28;20216;-82
2022/04/26 15:30:09;;;;;;;1.50;1.50;;;;;;;;;;5052874;28;20237;-82
2022/04/26 15:32:36;;;;;;;2.53;1.90;;;;;;;;;;5053582;28;20214;-83
2022/04/26 15:35:03;;;;;;;3.10;2.00;;;;;;;;;;5053166;28;20709;-82
2022/04/26 15:37:30;;;;;;;2.40;2.20;;;;;;;;;;5053861;28;20212;-82
2022/04/26 15:39:59;;;;;;;3.60;2.00;;;;;;;;;;5053098;28;20230;-82
2022/04/26 15:42:26;;;;;;;2.10;2.00;;;;;;;;;;5053081;28;20209;-83
2022/04/26 15:44:53;;;;;;;2.37;1.97;;;;;;;;;;5060494;28;20229;-82
2022/04/26 15:47:20;;;;;;;2.30;2.10;;;;;;;;;;5054579;28;20213;-83
2022/04/26 15:49:47;;;;;;;1.97;1.87;;;;;;;;;;5053507;28;20233;-83
2022/04/26 15:52:15;;;;;;;2.43;2.23;;;;;;;;;;5053709;28;20681;-82
2022/04/26 15:54:43;;;;;;;2.60;2.23;;;;;;;;;;5055927;28;20241;-83
2022/04/26 15:57:12;;;;;;;2.37;2.17;;;;;;;;;;5056145;28;20292;-82
2022/04/26 15:59:40;;;;;;;2.80;2.60;;;;;;;;;;5056098;28;20257;-82
2022/04/26 16:02:07;;;;;;;2.73;2.50;;;;;;;;;;5056710;28;20288;-83
2022/04/26 16:04:39;;;;;;;2.83;2.63;;;;;;;;;;5055577;28;20250;-82
2022/04/26 16:07:06;;;;;;;2.60;2.50;;;;;;;;;;5056147;28;20237;-83
2022/04/26 16:20:34;;;;;;;3.33;3.00;;;;;;;;;;5043942;28;20233;-83
2022/04/26 16:23:03;;;;;;;3.30;3.00;;;;;;;;;;5055780;28;20233;-83
2022/04/26 16:25:30;;;;;;;7.00;3.47;;;;;;;;;;5055224;28;20729;-83
2022/04/26 16:28:00;;;;;;;3.73;3.43;;;;;;;;;;5054547;28;20205;-83
2022/04/26 16:30:29;;;;;;;3.47;3.17;;;;;;;;;;5054024;28;20225;-83
2022/04/26 16:32:56;;;;;;;3.47;3.20;;;;;;;;;;5055340;28;20240;-83
2022/04/26 16:35:24;;;;;;;4.80;3.13;;;;;;;;;;5054694;28;20304;-82
2022/04/26 16:37:52;;;;;;;3.97;3.57;;;;;;;;;;5055560;28;20354;-82
2022/04/26 16:40:19;;;;;;;3.70;3.40;;;;;;;;;;5055179;28;20234;-83
2022/04/26 16:42:46;;;;;;;3.90;3.60;;;;;;;;;;5055542;28;20275;-83
2022/04/26 16:45:15;;;;;;;4.00;3.60;;;;;;;;;;5054847;28;20230;-83
2022/04/26 16:47:42;;;;;;;4.10;3.70;;;;;;;;;;5055397;28;20217;-83
2022/04/26 16:50:09;;;;;;;4.57;4.00;;;;;;;;;;5054782;28;20241;-82
2022/04/26 16:52:37;;;;;;;4.20;3.80;;;;;;;;;;5054825;28;20647;-83
2022/04/26 16:55:04;;;;;;;4.17;3.63;;;;;;;;;;5055451;28;20241;-83
2022/04/26 16:57:31;;;;;;;4.07;3.70;;;;;;;;;;5055988;28;20423;-83
2022/04/26 16:59:59;;;;;;;4.10;3.80;;;;;;;;;;5055407;28;20241;-83
2022/04/26 17:02:27;;;;;;;4.73;3.87;;;;;;;;;;5055734;28;20206;-83
2022/04/26 17:04:55;;;;;;;5.10;4.13;;;;;;;;;;5055104;28;20230;-83
2022/04/26 17:07:23;;;;;;;4.50;4.10;;;;;;;;;;5056200;28;20309;-83
2022/04/26 17:09:50;;;;;;;4.90;4.43;;;;;;;;;;5054506;28;20325;-83
2022/04/26 17:12:17;;;;;;;5.27;4.37;;;;;;;;;;5054825;28;20228;-84
2022/04/26 17:14:44;;;;;;;4.60;4.20;;;;;;;;;;5054329;28;20245;-83
2022/04/26 17:17:12;;;;;;;4.80;4.40;;;;;;;;;;5055804;28;20213;-83
2022/04/26 17:19:41;;;;;;;4.73;4.30;;;;;;;;;;5054433;28;20759;-84
2022/04/26 17:22:10;;;;;;;4.80;4.40;;;;;;;;;;5055121;28;20236;-83
2022/04/26 17:27:23;;;;;;;5.43;4.90;;;;;;;;;;5054550;28;20212;-84
2022/04/26 17:29:50;;;;;;;4.93;4.20;;;;;;;;;;5054283;28;20229;-84
2022/04/26 17:32:17;;;;;;;5.87;4.60;;;;;;;;;;5056300;28;20202;-84
2022/04/26 17:34:46;;;;;;;4.23;3.83;;;;;;;;;;5054984;28;20249;-84
2022/04/26 17:37:13;;;;;;;5.57;3.90;;;;;;;;;;5056108;28;20206;-84
2022/04/26 17:39:40;;;;;;;3.97;3.67;;;;;;;;;;5053185;28;20245;-83
2022/04/26 17:42:08;;;;;;;3.83;3.50;;;;;;;;;;5055169;28;20229;-84
2022/04/26 17:44:35;;;;;;;4.13;3.57;;;;;;;;;;5054636;28;20241;-84
2022/04/26 17:47:02;;;;;;;5.20;4.20;;;;;;;;;;5055328;28;20619;-84
2022/04/26 17:49:30;;;;;;;4.53;4.03;;;;;;;;;;5053796;28;20234;-85
2022/04/26 17:51:59;;;;;;;4.03;3.73;;;;;;;;;;5054630;28;20194;-84
2022/04/26 17:57:10;;;;;;;4.20;3.80;;;;;;;;;;5054413;28;20831;-85
2022/04/26 17:59:38;;;;;;;4.40;4.00;;;;;;;;;;5053292;28;20241;-85
2022/04/26 18:02:05;;;;;;;4.30;3.90;;;;;;;;;;5054211;28;20241;-85
2022/04/26 18:04:32;;;;;;;4.17;3.77;;;;;;;;;;5053854;28;20242;-85
2022/04/26 18:07:01;;;;;;;4.30;3.90;;;;;;;;;;5054509;28;20297;-84
2022/04/26 18:09:28;;;;;;;5.83;3.80;;;;;;;;;;5053778;28;20225;-85
2022/04/26 18:11:55;;;;;;;5.10;4.37;;;;;;;;;;5054066;28;20209;-85
2022/04/26 18:14:22;;;;;;;4.70;4.30;;;;;;;;;;5059956;28;20237;-84
2022/04/26 18:16:50;;;;;;;4.83;3.73;;;;;;;;;;5061973;28;20241;-85
2022/04/26 18:19:17;;;;;;;5.40;4.27;;;;;;;;;;5055840;28;20229;-84
2022/04/26 18:21:44;;;;;;;4.57;4.17;;;;;;;;;;5054204;28;20226;-84
2022/04/26 18:24:12;;;;;;;4.30;3.90;;;;;;;;;;5053490;28;20229;-84
2022/04/26 18:26:40;;;;;;;4.30;3.90;;;;;;;;;;5053966;28;20202;-85
2022/04/26 18:29:09;;;;;;;6.43;3.93;;;;;;;;;;5053291;28;20240;-84
2022/04/26 18:31:37;;;;;;;4.93;3.80;;;;;;;;;;5054257;28;20200;-84
2022/04/26 18:34:05;;;;;;;4.53;4.13;;;;;;;;;;5053526;28;20291;-84
2022/04/26 18:36:32;;;;;;;4.67;4.27;;;;;;;;;;5054190;28;20218;-84
2022/04/26 18:38:59;;;;;;;4.70;4.13;;;;;;;;;;5052997;28;20580;-84
2022/04/26 18:41:29;;;;;;;5.70;4.37;;;;;;;;;;5053828;28;20240;-84
2022/04/26 18:43:56;;;;;;;4.70;4.23;;;;;;;;;;5053794;28;20222;-84
2022/04/26 18:46:23;;;;;;;5.27;4.77;;;;;;;;;;5053897;28;20201;-84
2022/04/26 18:48:51;;;;;;;7.13;5.33;;;;;;;;;;5053520;28;20263;-84
2022/04/26 18:51:18;;;;;;;5.57;5.07;;;;;;;;;;5053500;28;20312;-84
2022/04/26 18:53:46;;;;;;;5.47;4.83;;;;;;;;;;5053447;28;20234;-84
2022/04/26 18:56:13;;;;;;;7.00;4.53;;;;;;;;;;5052659;28;20234;-84
2022/04/26 18:58:43;;;;;;;6.17;4.77;;;;;;;;;;5053609;28;20264;-84
2022/04/26 19:01:10;;;;;;;4.70;4.30;;;;;;;;;;5053171;28;20649;-84
2022/04/26 19:03:37;;;;;;;5.43;4.47;;;;;;;;;;5053923;28;20233;-84
2022/04/26 19:06:04;;;;;;;5.23;4.50;;;;;;;;;;5052410;28;20789;-84
2022/04/26 19:08:32;;;;;;;5.67;4.60;;;;;;;;;;5053050;28;20209;-85
2022/04/26 19:13:45;;;;;;;5.17;4.67;;;;;;;;;;5052714;28;20240;-86
2022/04/26 19:16:12;;;;;;;5.70;5.20;;;;;;;;;;5052262;28;20233;-86